Time;durP1;ratioP1;P1;durP2;ratioP2;P2;SDS_P1;SDS_P2;PMS_P1;PMS_P2;Temp;Humidity;BMP_temperature;BMP_pressure;BME280_temperature;BME280_humidity;BME280_pressure;Samples;Min_cycle;Max_cycle;Signal;HPM_P1;HPM_P2
2023/04/27 00:00:02;;;;;;;5.97;3.47;;;;;;;;;;5075304;28;20965;-61
2023/04/27 00:02:29;;;;;;;3.90;3.30;;;;;;;;;;5075358;28;20858;-62
2023/04/27 00:04:56;;;;;;;2.43;2.23;;;;;;;;;;5075469;28;20433;-62
2023/04/27 00:07:25;;;;;;;3.77;1.80;;;;;;;;;;5075172;28;20463;-61
2023/04/27 00:09:52;;;;;;;7.50;2.30;;;;;;;;;;5075260;28;20491;-62
2023/04/27 00:12:19;;;;;;;3.47;2.20;;;;;;;;;;5075294;28;20540;-62
2023/04/27 00:14:46;;;;;;;3.40;2.40;;;;;;;;;;5075103;28;20448;-62
2023/04/27 00:17:13;;;;;;;1.90;1.80;;;;;;;;;;5075027;28;20537;-62
2023/04/27 00:19:41;;;;;;;2.87;1.70;;;;;;;;;;5074707;28;20513;-62
2023/04/27 00:22:08;;;;;;;3.93;2.10;;;;;;;;;;5074162;28;20931;-62
2023/04/27 00:24:36;;;;;;;3.10;2.00;;;;;;;;;;5075020;28;20542;-62
2023/04/27 00:27:03;;;;;;;3.10;1.60;;;;;;;;;;5074890;28;20460;-62
2023/04/27 00:29:30;;;;;;;2.10;1.60;;;;;;;;;;5074864;28;20842;-62
2023/04/27 00:31:57;;;;;;;4.50;1.77;;;;;;;;;;5074751;28;20448;-61
2023/04/27 00:34:24;;;;;;;5.03;1.90;;;;;;;;;;5074916;28;20513;-62
2023/04/27 00:36:50;;;;;;;2.13;1.80;;;;;;;;;;5074774;28;20447;-62
2023/04/27 00:39:17;;;;;;;3.97;1.70;;;;;;;;;;5074722;28;20834;-62
2023/04/27 00:41:46;;;;;;;2.27;1.73;;;;;;;;;;5074618;28;20547;-62
2023/04/27 00:44:13;;;;;;;4.10;1.67;;;;;;;;;;5074433;28;20422;-62
2023/04/27 00:46:40;;;;;;;1.60;1.50;;;;;;;;;;5074816;28;20531;-62
2023/04/27 00:49:07;;;;;;;3.17;1.87;;;;;;;;;;5074456;28;20479;-62
2023/04/27 00:51:34;;;;;;;2.40;1.63;;;;;;;;;;5074585;28;20509;-61
2023/04/27 00:54:01;;;;;;;5.47;1.97;;;;;;;;;;5074342;28;20475;-62
2023/04/27 00:56:28;;;;;;;3.07;1.67;;;;;;;;;;5074356;28;20513;-62
2023/04/27 00:58:56;;;;;;;2.97;1.63;;;;;;;;;;5074195;28;20429;-62
2023/04/27 01:01:24;;;;;;;2.60;1.53;;;;;;;;;;5074349;28;20455;-62
2023/04/27 01:03:50;;;;;;;2.90;1.80;;;;;;;;;;5074296;28;20443;-62
2023/04/27 01:06:17;;;;;;;1.67;1.53;;;;;;;;;;5074198;28;20452;-62
2023/04/27 01:08:45;;;;;;;2.50;1.70;;;;;;;;;;5073906;28;20979;-62
2023/04/27 01:11:12;;;;;;;3.13;1.70;;;;;;;;;;5073979;28;20495;-62
2023/04/27 01:13:39;;;;;;;3.53;2.03;;;;;;;;;;5073986;28;20634;-62
2023/04/27 01:16:08;;;;;;;3.83;1.57;;;;;;;;;;5074134;28;20448;-62
2023/04/27 01:18:35;;;;;;;8.13;1.93;;;;;;;;;;5073924;28;20422;-61
2023/04/27 01:21:02;;;;;;;2.03;1.60;;;;;;;;;;5073926;28;20546;-62
2023/04/27 01:23:30;;;;;;;3.33;2.00;;;;;;;;;;5073839;28;20810;-62
2023/04/27 01:25:57;;;;;;;4.40;1.30;;;;;;;;;;5073623;28;20444;-62
2023/04/27 01:28:24;;;;;;;5.87;2.73;;;;;;;;;;5073796;28;20480;-62
2023/04/27 01:30:51;;;;;;;2.33;2.00;;;;;;;;;;5073779;28;20543;-62
2023/04/27 01:33:18;;;;;;;4.60;1.63;;;;;;;;;;5073377;28;20479;-62
2023/04/27 01:35:45;;;;;;;2.50;1.60;;;;;;;;;;5073646;28;20448;-62
2023/04/27 01:38:12;;;;;;;11.73;1.97;;;;;;;;;;5073526;28;20469;-62
2023/04/27 01:40:40;;;;;;;2.80;1.80;;;;;;;;;;5073396;28;20533;-61
2023/04/27 01:43:07;;;;;;;4.30;2.17;;;;;;;;;;5073338;28;21045;-62
2023/04/27 01:45:34;;;;;;;4.87;2.13;;;;;;;;;;5073530;28;20450;-62
2023/04/27 01:48:01;;;;;;;2.83;1.90;;;;;;;;;;5073332;28;20443;-62
2023/04/27 01:50:28;;;;;;;2.17;1.77;;;;;;;;;;5073359;28;20454;-62
2023/04/27 01:52:55;;;;;;;2.97;1.70;;;;;;;;;;5073034;28;20886;-62
2023/04/27 01:55:22;;;;;;;3.73;1.97;;;;;;;;;;5073140;28;20456;-62
2023/04/27 01:57:50;;;;;;;3.47;2.07;;;;;;;;;;5073358;28;20454;-62
2023/04/27 02:00:17;;;;;;;1.80;1.60;;;;;;;;;;5073224;28;20459;-62
2023/04/27 02:02:44;;;;;;;3.57;1.93;;;;;;;;;;5073216;28;20459;-62
2023/04/27 02:05:11;;;;;;;4.40;2.20;;;;;;;;;;5073162;28;20461;-61
2023/04/27 02:07:38;;;;;;;4.23;1.73;;;;;;;;;;5072953;28;20454;-62
2023/04/27 02:10:05;;;;;;;3.60;1.67;;;;;;;;;;5073104;28;20484;-61
2023/04/27 02:12:32;;;;;;;3.60;1.87;;;;;;;;;;5073075;28;20576;-62
2023/04/27 02:15:02;;;;;;;6.90;1.70;;;;;;;;;;5073078;28;20882;-62
2023/04/27 02:17:30;;;;;;;3.63;1.97;;;;;;;;;;5072934;28;20491;-61
2023/04/27 02:19:57;;;;;;;2.83;1.50;;;;;;;;;;5072936;28;20551;-62
2023/04/27 02:22:23;;;;;;;7.57;2.03;;;;;;;;;;5072744;28;20452;-62
2023/04/27 02:24:50;;;;;;;2.63;1.80;;;;;;;;;;5072933;28;20454;-62
2023/04/27 02:27:17;;;;;;;2.97;2.00;;;;;;;;;;5072930;28;20450;-62
2023/04/27 02:29:44;;;;;;;6.00;1.83;;;;;;;;;;5072706;28;20484;-62
2023/04/27 02:32:13;;;;;;;3.30;1.50;;;;;;;;;;5072784;28;20448;-62
2023/04/27 02:34:40;;;;;;;2.67;1.53;;;;;;;;;;5072610;28;20454;-61
2023/04/27 02:37:07;;;;;;;2.50;1.77;;;;;;;;;;5072880;28;20456;-62
2023/04/27 02:39:34;;;;;;;3.03;1.77;;;;;;;;;;5072911;28;20866;-61
2023/04/27 02:42:01;;;;;;;6.03;1.80;;;;;;;;;;5072978;28;20465;-62
2023/04/27 02:44:28;;;;;;;6.33;2.13;;;;;;;;;;5074939;28;20455;-62
2023/04/27 02:46:55;;;;;;;9.23;2.37;;;;;;;;;;5076828;28;20448;-62
2023/04/27 02:49:23;;;;;;;5.57;2.67;;;;;;;;;;5076523;28;20504;-62
2023/04/27 02:51:50;;;;;;;3.73;2.20;;;;;;;;;;5076952;28;20473;-62
2023/04/27 02:54:17;;;;;;;3.77;1.97;;;;;;;;;;5076441;28;20478;-61
2023/04/27 02:56:44;;;;;;;4.10;1.80;;;;;;;;;;5076694;28;20555;-62
2023/04/27 02:59:11;;;;;;;4.47;2.00;;;;;;;;;;5076569;28;20501;-61
2023/04/27 03:01:38;;;;;;;2.93;1.63;;;;;;;;;;5076514;28;20451;-62
2023/04/27 03:04:05;;;;;;;4.60;1.87;;;;;;;;;;5076367;28;20911;-62
2023/04/27 03:06:33;;;;;;;2.20;2.00;;;;;;;;;;5076571;28;20451;-62
2023/04/27 03:09:00;;;;;;;2.50;1.87;;;;;;;;;;5076495;28;20452;-62
2023/04/27 03:11:27;;;;;;;3.70;2.00;;;;;;;;;;5076421;28;20454;-62
2023/04/27 03:13:55;;;;;;;3.30;1.80;;;;;;;;;;5076308;28;20448;-62
2023/04/27 03:16:22;;;;;;;4.10;1.97;;;;;;;;;;5076178;28;20480;-61
2023/04/27 03:18:49;;;;;;;3.97;2.10;;;;;;;;;;5076411;28;20471;-62
2023/04/27 03:21:16;;;;;;;4.97;2.57;;;;;;;;;;5076286;28;20447;-61
2023/04/27 03:23:44;;;;;;;2.00;1.90;;;;;;;;;;5076181;28;20444;-62
2023/04/27 03:26:12;;;;;;;3.70;2.07;;;;;;;;;;5076085;28;20444;-62
2023/04/27 03:28:39;;;;;;;3.20;1.80;;;;;;;;;;5075897;28;20450;-61
2023/04/27 03:31:06;;;;;;;3.63;2.50;;;;;;;;;;5075764;28;20423;-61
2023/04/27 03:33:33;;;;;;;5.70;2.27;;;;;;;;;;5076026;28;20574;-61
2023/04/27 03:36:01;;;;;;;4.60;1.90;;;;;;;;;;5075930;28;20454;-61
2023/04/27 03:38:28;;;;;;;13.63;2.27;;;;;;;;;;5075954;28;20448;-63
2023/04/27 03:40:56;;;;;;;4.17;2.30;;;;;;;;;;5075814;28;20551;-63
2023/04/27 03:43:23;;;;;;;3.10;1.90;;;;;;;;;;5075731;28;20452;-63
2023/04/27 03:45:50;;;;;;;3.50;2.30;;;;;;;;;;5076015;28;21008;-62
2023/04/27 03:48:17;;;;;;;2.80;2.03;;;;;;;;;;5075768;28;20443;-61
2023/04/27 03:50:45;;;;;;;6.03;2.23;;;;;;;;;;5075622;28;20911;-61
2023/04/27 03:53:12;;;;;;;3.37;2.30;;;;;;;;;;5075426;28;20472;-61
2023/04/27 03:55:39;;;;;;;7.20;3.00;;;;;;;;;;5075315;28;20458;-63
2023/04/27 03:58:09;;;;;;;2.63;1.60;;;;;;;;;;5075394;28;20516;-61
2023/04/27 04:00:36;;;;;;;3.23;1.90;;;;;;;;;;5075539;28;20471;-61
2023/04/27 04:03:03;;;;;;;3.93;2.00;;;;;;;;;;5075373;28;20448;-61
2023/04/27 04:05:30;;;;;;;5.70;2.17;;;;;;;;;;5075346;28;20444;-61
2023/04/27 04:07:57;;;;;;;5.93;2.50;;;;;;;;;;5075273;28;20462;-62
2023/04/27 04:10:24;;;;;;;8.83;2.60;;;;;;;;;;5075125;28;20837;-62
2023/04/27 04:12:52;;;;;;;2.60;1.60;;;;;;;;;;5075463;28;20483;-62
2023/04/27 04:15:20;;;;;;;2.87;2.07;;;;;;;;;;5075276;28;20489;-62
2023/04/27 04:17:48;;;;;;;3.83;1.73;;;;;;;;;;5075206;28;20517;-62
2023/04/27 04:20:15;;;;;;;3.03;1.67;;;;;;;;;;5075085;28;20887;-61
2023/04/27 04:22:43;;;;;;;8.67;2.23;;;;;;;;;;5074998;28;20513;-62
2023/04/27 04:25:10;;;;;;;6.00;2.27;;;;;;;;;;5074951;28;20864;-62
2023/04/27 04:27:37;;;;;;;4.17;2.23;;;;;;;;;;5075100;28;20509;-62
2023/04/27 04:30:05;;;;;;;2.83;2.13;;;;;;;;;;5074866;28;20892;-62
2023/04/27 04:32:36;;;;;;;2.70;2.20;;;;;;;;;;5074913;28;20506;-62
2023/04/27 04:35:04;;;;;;;2.50;1.83;;;;;;;;;;5074827;28;20452;-62
2023/04/27 04:37:33;;;;;;;4.53;2.57;;;;;;;;;;5074649;28;20539;-62
2023/04/27 04:40:00;;;;;;;5.10;3.07;;;;;;;;;;5074553;28;20430;-62
2023/04/27 04:42:27;;;;;;;3.57;1.90;;;;;;;;;;5074855;28;20860;-62
2023/04/27 04:44:54;;;;;;;8.00;2.00;;;;;;;;;;5074686;28;20459;-61
2023/04/27 04:47:21;;;;;;;5.50;2.17;;;;;;;;;;5074625;28;20444;-62
2023/04/27 04:49:50;;;;;;;3.17;1.97;;;;;;;;;;5074464;28;20486;-62
2023/04/27 04:52:17;;;;;;;7.87;2.10;;;;;;;;;;5074317;28;20452;-62
2023/04/27 04:54:44;;;;;;;6.80;2.30;;;;;;;;;;5074272;28;20483;-61
2023/04/27 04:57:11;;;;;;;4.47;2.23;;;;;;;;;;5074508;28;20474;-62
2023/04/27 04:59:38;;;;;;;4.27;2.57;;;;;;;;;;5074374;28;20448;-62
2023/04/27 05:02:05;;;;;;;5.30;2.27;;;;;;;;;;5074256;28;20547;-62
2023/04/27 05:04:32;;;;;;;2.47;1.80;;;;;;;;;;5074078;28;20955;-62
2023/04/27 05:07:00;;;;;;;3.43;2.33;;;;;;;;;;5073371;28;20538;-62
2023/04/27 05:09:27;;;;;;;6.50;2.13;;;;;;;;;;5074067;28;20450;-62
2023/04/27 05:11:54;;;;;;;3.07;2.17;;;;;;;;;;5073962;28;20960;-62
2023/04/27 05:14:21;;;;;;;6.17;2.20;;;;;;;;;;5073992;28;20466;-65
2023/04/27 05:16:50;;;;;;;7.77;2.63;;;;;;;;;;5073850;28;20446;-62
2023/04/27 05:19:19;;;;;;;5.67;2.60;;;;;;;;;;5073694;28;20448;-62
2023/04/27 05:21:46;;;;;;;9.00;3.17;;;;;;;;;;5073922;28;20418;-61
2023/04/27 05:24:14;;;;;;;7.30;2.47;;;;;;;;;;5073805;28;20443;-62
2023/04/27 05:26:42;;;;;;;5.47;2.43;;;;;;;;;;5073756;28;20861;-62
2023/04/27 05:29:10;;;;;;;8.80;2.80;;;;;;;;;;5073441;28;20452;-62
2023/04/27 05:31:37;;;;;;;5.37;2.90;;;;;;;;;;5073689;28;20455;-62
2023/04/27 05:34:04;;;;;;;10.10;2.50;;;;;;;;;;5073477;28;20544;-62
2023/04/27 05:36:31;;;;;;;6.10;2.63;;;;;;;;;;5073501;28;20487;-62
2023/04/27 05:38:58;;;;;;;3.50;2.53;;;;;;;;;;5073499;28;20478;-62
2023/04/27 05:41:26;;;;;;;4.67;2.47;;;;;;;;;;5073526;28;20452;-62
2023/04/27 05:43:53;;;;;;;6.30;2.80;;;;;;;;;;5073341;28;20451;-62
2023/04/27 05:46:20;;;;;;;3.80;2.40;;;;;;;;;;5073055;28;20471;-62
2023/04/27 05:48:47;;;;;;;5.77;2.30;;;;;;;;;;5073224;28;20927;-62
2023/04/27 05:51:15;;;;;;;5.47;2.90;;;;;;;;;;5073370;28;20836;-62
2023/04/27 05:53:42;;;;;;;2.90;2.23;;;;;;;;;;5073073;28;20494;-62
2023/04/27 05:56:10;;;;;;;8.33;1.80;;;;;;;;;;5073182;28;20457;-62
2023/04/27 05:58:38;;;;;;;3.60;2.00;;;;;;;;;;5073012;28;20929;-62
2023/04/27 06:01:06;;;;;;;7.77;2.80;;;;;;;;;;5072994;28;20547;-61
2023/04/27 06:03:33;;;;;;;13.13;2.93;;;;;;;;;;5073177;28;20456;-61
2023/04/27 06:06:01;;;;;;;5.27;2.20;;;;;;;;;;5072917;28;20454;-61
2023/04/27 06:08:28;;;;;;;10.33;2.03;;;;;;;;;;5072978;28;20448;-61
2023/04/27 06:10:55;;;;;;;8.20;2.40;;;;;;;;;;5072686;28;20884;-61
2023/04/27 06:13:22;;;;;;;4.80;2.03;;;;;;;;;;5072845;28;20487;-62
2023/04/27 06:15:51;;;;;;;5.87;2.03;;;;;;;;;;5073092;28;20447;-61
2023/04/27 06:18:18;;;;;;;2.23;1.60;;;;;;;;;;5072675;28;20454;-61
2023/04/27 06:20:45;;;;;;;3.67;2.40;;;;;;;;;;5073027;28;20447;-62
2023/04/27 06:23:12;;;;;;;3.67;2.20;;;;;;;;;;5072859;28;20531;-61
2023/04/27 06:25:39;;;;;;;8.03;2.27;;;;;;;;;;5072750;28;20850;-61
2023/04/27 06:28:06;;;;;;;6.33;2.03;;;;;;;;;;5072647;28;20448;-61
2023/04/27 06:30:33;;;;;;;4.10;2.03;;;;;;;;;;5072582;28;21010;-61
2023/04/27 06:33:02;;;;;;;2.53;2.10;;;;;;;;;;5073080;28;20448;-61
2023/04/27 06:35:29;;;;;;;6.43;1.97;;;;;;;;;;5072701;28;20452;-61
2023/04/27 06:37:57;;;;;;;2.27;1.80;;;;;;;;;;5072577;28;20451;-61
2023/04/27 06:40:24;;;;;;;3.37;2.57;;;;;;;;;;5072438;28;20454;-61
2023/04/27 06:42:51;;;;;;;3.23;2.30;;;;;;;;;;5072533;28;20506;-61
2023/04/27 06:45:18;;;;;;;8.07;3.20;;;;;;;;;;5072839;28;20534;-61
2023/04/27 06:47:45;;;;;;;6.23;2.70;;;;;;;;;;5072649;28;20456;-61
2023/04/27 06:50:14;;;;;;;4.77;3.00;;;;;;;;;;5072428;28;20800;-62
2023/04/27 06:52:41;;;;;;;4.93;2.63;;;;;;;;;;5072282;28;20543;-61
2023/04/27 06:55:08;;;;;;;4.10;2.80;;;;;;;;;;5072450;28;20536;-62
2023/04/27 06:57:35;;;;;;;4.33;3.00;;;;;;;;;;5072777;28;20544;-62
2023/04/27 07:00:03;;;;;;;10.13;4.10;;;;;;;;;;5072668;28;20460;-63
2023/04/27 07:02:30;;;;;;;3.93;2.57;;;;;;;;;;5072481;28;20540;-61
2023/04/27 07:04:57;;;;;;;4.17;2.30;;;;;;;;;;5072485;28;20492;-61
2023/04/27 07:07:26;;;;;;;6.20;3.90;;;;;;;;;;5072480;28;20454;-62
2023/04/27 07:09:53;;;;;;;7.37;2.47;;;;;;;;;;5072225;28;20454;-62
2023/04/27 07:12:20;;;;;;;9.37;3.10;;;;;;;;;;5072638;28;20448;-62
2023/04/27 07:14:49;;;;;;;5.47;3.07;;;;;;;;;;5072366;28;20448;-62
2023/04/27 07:17:16;;;;;;;4.33;3.20;;;;;;;;;;5072265;28;20491;-61
2023/04/27 07:19:43;;;;;;;3.93;2.13;;;;;;;;;;5072349;28;20495;-62
2023/04/27 07:22:10;;;;;;;6.10;2.40;;;;;;;;;;5072149;28;20538;-60
2023/04/27 07:24:38;;;;;;;5.20;2.30;;;;;;;;;;5072016;28;20968;-61
2023/04/27 07:27:06;;;;;;;4.00;2.70;;;;;;;;;;5072209;28;21000;-60
2023/04/27 07:29:32;;;;;;;3.37;2.60;;;;;;;;;;5072851;28;20464;-59
2023/04/27 07:31:59;;;;;;;3.90;2.00;;;;;;;;;;5075777;28;20483;-60
2023/04/27 07:34:27;;;;;;;4.63;2.07;;;;;;;;;;5075881;28;20454;-61
2023/04/27 07:36:53;;;;;;;6.50;2.37;;;;;;;;;;5075680;28;20439;-61
2023/04/27 07:39:20;;;;;;;2.63;2.40;;;;;;;;;;5075862;28;20505;-61
2023/04/27 07:41:49;;;;;;;4.03;1.80;;;;;;;;;;5075583;28;20458;-61
2023/04/27 07:44:16;;;;;;;4.60;2.20;;;;;;;;;;5075598;28;20470;-60
2023/04/27 07:46:43;;;;;;;2.50;2.03;;;;;;;;;;5075665;28;20451;-59
2023/04/27 07:49:12;;;;;;;2.63;2.10;;;;;;;;;;5075526;28;20538;-60
2023/04/27 07:51:39;;;;;;;3.00;2.70;;;;;;;;;;5075341;28;20586;-60
2023/04/27 07:54:06;;;;;;;10.70;3.03;;;;;;;;;;5075255;28;21018;-61
2023/04/27 07:56:33;;;;;;;5.80;2.80;;;;;;;;;;5075436;28;20463;-62
2023/04/27 07:59:01;;;;;;;4.67;2.97;;;;;;;;;;5075482;28;20535;-61
2023/04/27 08:01:28;;;;;;;7.40;3.23;;;;;;;;;;5075417;28;20882;-60
2023/04/27 08:03:55;;;;;;;4.20;3.67;;;;;;;;;;5075196;28;20540;-60
2023/04/27 08:06:22;;;;;;;4.80;3.70;;;;;;;;;;5075346;28;20535;-60
2023/04/27 08:08:49;;;;;;;3.13;2.83;;;;;;;;;;5075298;28;20451;-60
2023/04/27 08:11:16;;;;;;;3.20;2.90;;;;;;;;;;5075173;28;20483;-60
2023/04/27 08:13:43;;;;;;;6.60;3.67;;;;;;;;;;5075154;28;20803;-60
2023/04/27 08:16:11;;;;;;;4.23;2.80;;;;;;;;;;5075125;28;20452;-60
2023/04/27 08:18:38;;;;;;;3.50;2.83;;;;;;;;;;5074964;28;20544;-60
2023/04/27 08:21:05;;;;;;;4.13;2.90;;;;;;;;;;5075239;28;20669;-61
2023/04/27 08:23:32;;;;;;;2.30;2.10;;;;;;;;;;5075063;28;20875;-60
2023/04/27 08:25:59;;;;;;;4.17;2.93;;;;;;;;;;5075010;28;20452;-59
2023/04/27 08:28:26;;;;;;;3.73;2.30;;;;;;;;;;5074924;28;20977;-59
2023/04/27 08:30:53;;;;;;;2.00;1.80;;;;;;;;;;5074720;28;20468;-59
2023/04/27 08:33:22;;;;;;;6.27;2.50;;;;;;;;;;5074543;28;20447;-61
2023/04/27 08:35:49;;;;;;;2.60;2.40;;;;;;;;;;5074914;28;20506;-60
2023/04/27 08:38:16;;;;;;;4.90;4.50;;;;;;;;;;5074957;28;20890;-61
2023/04/27 08:40:43;;;;;;;4.43;2.23;;;;;;;;;;5074276;28;20462;-61
2023/04/27 08:43:10;;;;;;;8.80;2.20;;;;;;;;;;5074091;28;20444;-63
2023/04/27 08:45:37;;;;;;;2.40;1.90;;;;;;;;;;5074486;28;20534;-60
2023/04/27 08:48:04;;;;;;;3.47;2.70;;;;;;;;;;5074642;28;20981;-60
2023/04/27 08:50:33;;;;;;;3.37;1.90;;;;;;;;;;5074572;28;20555;-60
2023/04/27 08:53:00;;;;;;;2.20;1.87;;;;;;;;;;5074358;28;20515;-60
2023/04/27 08:55:27;;;;;;;3.73;2.63;;;;;;;;;;5074364;28;20455;-63
2023/04/27 08:57:55;;;;;;;4.13;1.90;;;;;;;;;;5074258;28;20547;-61
2023/04/27 09:00:22;;;;;;;3.83;2.10;;;;;;;;;;5074177;28;20456;-61
2023/04/27 09:02:49;;;;;;;3.70;2.40;;;;;;;;;;5074223;28;20452;-62
2023/04/27 09:05:17;;;;;;;1.87;1.70;;;;;;;;;;5074287;28;20495;-63
2023/04/27 09:07:57;;;;;;;3.23;2.47;;;;;;;;;;5074166;28;20514;-63
2023/04/27 09:10:24;;;;;;;2.30;2.10;;;;;;;;;;5074101;28;20500;-61
2023/04/27 09:12:58;;;;;;;2.30;1.93;;;;;;;;;;5074375;28;20563;-62
2023/04/27 09:15:25;;;;;;;2.57;2.43;;;;;;;;;;5074168;28;20459;-61
2023/04/27 09:17:55;;;;;;;40.07;23.30;;;;;;;;;;5073898;28;20448;-61
2023/04/27 09:20:23;;;;;;;9.27;2.23;;;;;;;;;;5073818;28;20459;-60
2023/04/27 09:22:53;;;;;;;3.33;2.20;;;;;;;;;;5073726;28;20426;-61
2023/04/27 09:25:26;;;;;;;3.60;1.90;;;;;;;;;;5073535;28;20456;-61
2023/04/27 09:27:53;;;;;;;2.33;1.90;;;;;;;;;;5073785;28;20875;-61
2023/04/27 09:30:20;;;;;;;2.40;1.97;;;;;;;;;;5073818;28;20480;-61
2023/04/27 09:32:52;;;;;;;3.10;2.37;;;;;;;;;;5073556;28;20917;-60
2023/04/27 09:35:21;;;;;;;4.60;2.20;;;;;;;;;;5073544;28;20458;-61
2023/04/27 09:37:48;;;;;;;4.63;2.27;;;;;;;;;;5073294;28;20747;-61
2023/04/27 09:40:16;;;;;;;3.07;2.00;;;;;;;;;;5073610;28;20461;-61
2023/04/27 09:42:44;;;;;;;7.40;2.20;;;;;;;;;;5073500;28;20478;-61
2023/04/27 09:45:12;;;;;;;4.23;2.17;;;;;;;;;;5073475;28;20444;-61
2023/04/27 09:47:39;;;;;;;6.10;1.73;;;;;;;;;;5073385;28;20779;-62
2023/04/27 09:50:07;;;;;;;4.30;2.40;;;;;;;;;;5073230;28;20454;-61
2023/04/27 09:52:34;;;;;;;4.23;2.07;;;;;;;;;;5073159;28;20989;-61
2023/04/27 09:55:02;;;;;;;3.13;2.00;;;;;;;;;;5072899;28;20510;-60
2023/04/27 09:57:35;;;;;;;3.20;2.90;;;;;;;;;;5073256;28;20509;-62
2023/04/27 10:00:11;;;;;;;3.03;1.83;;;;;;;;;;5073196;28;20543;-62
2023/04/27 10:02:41;;;;;;;5.20;3.20;;;;;;;;;;5072869;28;20463;-62
2023/04/27 10:05:25;;;;;;;3.40;2.50;;;;;;;;;;5073121;28;20454;-63
2023/04/27 10:07:53;;;;;;;2.27;2.17;;;;;;;;;;5073026;28;20524;-63
2023/04/27 10:10:20;;;;;;;4.97;2.23;;;;;;;;;;5072827;28;20448;-63
2023/04/27 10:12:56;;;;;;;2.20;1.50;;;;;;;;;;5072804;28;20982;-62
2023/04/27 10:15:27;;;;;;;2.93;2.13;;;;;;;;;;5072768;28;20454;-61
2023/04/27 10:17:57;;;;;;;4.20;3.30;;;;;;;;;;5073057;28;20879;-62
2023/04/27 10:20:29;;;;;;;3.80;1.83;;;;;;;;;;5072726;28;20483;-60
2023/04/27 10:22:56;;;;;;;2.20;2.00;;;;;;;;;;5072848;28;20497;-59
2023/04/27 10:25:24;;;;;;;6.73;3.30;;;;;;;;;;5072775;28;20452;-61
2023/04/27 10:27:53;;;;;;;2.57;2.00;;;;;;;;;;5072766;28;20806;-61
2023/04/27 10:30:21;;;;;;;7.80;6.50;;;;;;;;;;5072452;28;20459;-60
2023/04/27 10:32:53;;;;;;;7.60;6.40;;;;;;;;;;5072657;28;20872;-61
2023/04/27 10:35:21;;;;;;;6.10;3.20;;;;;;;;;;5072829;28;20530;-59
2023/04/27 10:37:48;;;;;;;3.80;1.97;;;;;;;;;;5072706;28;20810;-59
2023/04/27 10:40:17;;;;;;;3.40;2.17;;;;;;;;;;5072404;28;20883;-60
2023/04/27 10:42:45;;;;;;;3.13;2.13;;;;;;;;;;5072464;28;20984;-60
2023/04/27 10:45:12;;;;;;;3.00;2.70;;;;;;;;;;5072461;28;20448;-60
2023/04/27 10:47:40;;;;;;;3.97;2.43;;;;;;;;;;5072610;28;20812;-60
2023/04/27 10:50:12;;;;;;;5.80;3.17;;;;;;;;;;5072675;28;20445;-62
2023/04/27 10:52:41;;;;;;;3.47;2.50;;;;;;;;;;5072285;28;20476;-62
2023/04/27 10:55:15;;;;;;;4.00;2.00;;;;;;;;;;5072554;28;20806;-62
2023/04/27 10:57:49;;;;;;;3.43;2.33;;;;;;;;;;5072045;28;21170;-60
2023/04/27 11:00:17;;;;;;;3.20;2.20;;;;;;;;;;5072557;28;20447;-59
2023/04/27 11:02:44;;;;;;;32.60;19.87;;;;;;;;;;5072302;28;20508;-60
2023/04/27 11:05:19;;;;;;;71.47;50.73;;;;;;;;;;5073875;28;20513;-61
2023/04/27 11:07:46;;;;;;;16.23;10.13;;;;;;;;;;5076514;28;20418;-63
2023/04/27 11:10:17;;;;;;;10.43;9.43;;;;;;;;;;5076364;28;20448;-62
2023/04/27 11:12:44;;;;;;;5.03;3.60;;;;;;;;;;5076207;28;20495;-62
2023/04/27 11:15:11;;;;;;;2.40;2.20;;;;;;;;;;5076088;28;20543;-62
2023/04/27 11:17:38;;;;;;;6.33;2.60;;;;;;;;;;5076180;28;20452;-64
2023/04/27 11:20:07;;;;;;;2.60;2.40;;;;;;;;;;5076389;28;20432;-62
2023/04/27 11:22:36;;;;;;;4.17;2.80;;;;;;;;;;5076221;28;20455;-65
2023/04/27 11:25:03;;;;;;;3.17;2.03;;;;;;;;;;5076191;28;20538;-62
2023/04/27 11:27:37;;;;;;;4.30;2.50;;;;;;;;;;5076069;28;20483;-63
2023/04/27 11:30:06;;;;;;;1.93;1.67;;;;;;;;;;5075938;28;20448;-62
2023/04/27 11:32:33;;;;;;;2.50;1.63;;;;;;;;;;5075967;28;20487;-62
2023/04/27 11:35:00;;;;;;;2.90;1.80;;;;;;;;;;5075938;28;20451;-64
2023/04/27 11:37:28;;;;;;;2.47;1.50;;;;;;;;;;5075857;28;20539;-61
2023/04/27 11:40:00;;;;;;;2.50;1.70;;;;;;;;;;5075862;28;20542;-65
2023/04/27 11:42:28;;;;;;;1.97;1.30;;;;;;;;;;5075609;28;21023;-59
2023/04/27 11:44:56;;;;;;;4.10;1.60;;;;;;;;;;5075372;28;20473;-60
2023/04/27 11:47:23;;;;;;;1.50;1.40;;;;;;;;;;5075615;28;20448;-61
2023/04/27 11:49:51;;;;;;;4.83;1.67;;;;;;;;;;5075628;28;20458;-61
2023/04/27 11:52:18;;;;;;;4.73;1.83;;;;;;;;;;5075465;28;20482;-61
2023/04/27 11:54:49;;;;;;;2.40;2.10;;;;;;;;;;5075137;28;20476;-61
2023/04/27 11:57:17;;;;;;;2.80;1.80;;;;;;;;;;5075317;28;20444;-60
2023/04/27 11:59:45;;;;;;;2.27;1.93;;;;;;;;;;5075481;28;20483;-61
2023/04/27 12:02:12;;;;;;;3.40;1.93;;;;;;;;;;5075465;28;20452;-62
2023/04/27 12:04:39;;;;;;;5.27;2.13;;;;;;;;;;5075259;28;20498;-60
2023/04/27 12:07:06;;;;;;;4.60;2.10;;;;;;;;;;5075238;28;20447;-59
2023/04/27 12:09:32;;;;;;;4.50;1.80;;;;;;;;;;5074667;28;20477;-59
2023/04/27 12:12:01;;;;;;;2.10;1.80;;;;;;;;;;5074895;28;20655;-58
2023/04/27 12:14:29;;;;;;;2.10;1.90;;;;;;;;;;5075247;28;20769;-61
2023/04/27 12:16:56;;;;;;;1.53;1.43;;;;;;;;;;5075075;28;20544;-63
2023/04/27 12:19:24;;;;;;;2.33;1.83;;;;;;;;;;5074926;28;20453;-61
2023/04/27 12:21:51;;;;;;;2.00;1.50;;;;;;;;;;5074125;28;20458;-62
2023/04/27 12:24:18;;;;;;;2.10;1.53;;;;;;;;;;5074629;28;20460;-65
2023/04/27 12:26:45;;;;;;;3.22;2.03;;;;;;;;;;5073879;28;20461;-61
2023/04/27 12:29:12;;;;;;;5.27;2.00;;;;;;;;;;5074836;28;20185;-60
2023/04/27 12:31:41;;;;;;;1.80;1.70;;;;;;;;;;5074759;28;20459;-61
2023/04/27 12:34:07;;;;;;;2.83;1.73;;;;;;;;;;5074755;28;20454;-60
2023/04/27 12:36:35;;;;;;;3.10;1.53;;;;;;;;;;5074616;28;21018;-60
2023/04/27 12:39:15;;;;;;;2.90;2.30;;;;;;;;;;5074469;28;20448;-62
2023/04/27 12:41:43;;;;;;;3.00;1.80;;;;;;;;;;5074333;28;20875;-63
2023/04/27 12:44:10;;;;;;;2.38;1.60;;;;;;;;;;5073453;28;20820;-65
2023/04/27 12:46:37;;;;;;;2.53;1.70;;;;;;;;;;5074549;28;20546;-61
2023/04/27 12:49:06;;;;;;;3.50;1.40;;;;;;;;;;5074403;28;20893;-59
2023/04/27 12:51:33;;;;;;;1.67;1.30;;;;;;;;;;5074066;28;20507;-64
2023/04/27 12:54:01;;;;;;;1.20;1.10;;;;;;;;;;5074156;28;20479;-63
2023/04/27 12:56:28;;;;;;;4.20;1.70;;;;;;;;;;5074331;28;20448;-62
2023/04/27 12:58:55;;;;;;;2.33;1.13;;;;;;;;;;5074362;28;20448;-60
2023/04/27 13:01:23;;;;;;;2.77;1.57;;;;;;;;;;5074262;28;20528;-59
2023/04/27 13:03:52;;;;;;;1.93;1.20;;;;;;;;;;5074066;28;20452;-61
2023/04/27 13:06:21;;;;;;;4.60;1.33;;;;;;;;;;5074209;28;20471;-60
2023/04/27 13:08:48;;;;;;;1.80;1.70;;;;;;;;;;5074163;28;20539;-62
2023/04/27 13:11:16;;;;;;;2.07;1.40;;;;;;;;;;5074038;28;20444;-61
2023/04/27 13:13:44;;;;;;;4.63;1.50;;;;;;;;;;5073913;28;20475;-61
2023/04/27 13:16:11;;;;;;;1.63;1.53;;;;;;;;;;5073937;28;20538;-65
2023/04/27 13:18:39;;;;;;;1.77;1.30;;;;;;;;;;5073621;28;20547;-61
2023/04/27 13:21:06;;;;;;;3.30;1.50;;;;;;;;;;5073846;28;20447;-63
2023/04/27 13:23:34;;;;;;;2.23;1.20;;;;;;;;;;5073717;28;20498;-62
2023/04/27 13:26:01;;;;;;;2.00;1.10;;;;;;;;;;5073781;28;20448;-64
2023/04/27 13:28:28;;;;;;;6.23;2.03;;;;;;;;;;5073029;28;20961;-62
2023/04/27 13:30:55;;;;;;;1.40;1.30;;;;;;;;;;5073366;28;20530;-62
2023/04/27 13:33:22;;;;;;;2.20;1.63;;;;;;;;;;5073578;28;20483;-62
2023/04/27 13:35:49;;;;;;;4.47;1.37;;;;;;;;;;5073491;28;20459;-62
2023/04/27 13:38:16;;;;;;;1.60;1.30;;;;;;;;;;5073467;28;20510;-61
2023/04/27 13:40:44;;;;;;;2.10;1.67;;;;;;;;;;5073385;28;20811;-62
2023/04/27 13:43:11;;;;;;;2.90;1.70;;;;;;;;;;5073208;28;20527;-62
2023/04/27 13:45:38;;;;;;;2.20;1.57;;;;;;;;;;5073113;28;20543;-62
2023/04/27 13:48:05;;;;;;;3.30;1.73;;;;;;;;;;5073396;28;20460;-62
2023/04/27 13:50:32;;;;;;;4.53;1.50;;;;;;;;;;5073229;28;20509;-62
2023/04/27 13:53:00;;;;;;;1.63;1.10;;;;;;;;;;5072632;28;20505;-62
2023/04/27 13:55:26;;;;;;;2.93;1.40;;;;;;;;;;5073283;28;20451;-62
2023/04/27 13:57:55;;;;;;;1.33;1.03;;;;;;;;;;5073227;28;20538;-62
2023/04/27 14:00:22;;;;;;;3.00;1.30;;;;;;;;;;5073131;28;20530;-62
2023/04/27 14:02:49;;;;;;;2.30;1.17;;;;;;;;;;5073217;28;20538;-62
2023/04/27 14:05:16;;;;;;;2.43;1.30;;;;;;;;;;5073074;28;20501;-62
2023/04/27 14:07:43;;;;;;;2.63;1.10;;;;;;;;;;5072927;28;20466;-63
2023/04/27 14:10:10;;;;;;;3.40;1.80;;;;;;;;;;5073003;28;20444;-62
2023/04/27 14:12:37;;;;;;;1.50;1.13;;;;;;;;;;5072747;28;20489;-61
2023/04/27 14:15:05;;;;;;;2.97;1.10;;;;;;;;;;5072948;28;20454;-63
2023/04/27 14:17:32;;;;;;;1.40;1.23;;;;;;;;;;5072840;28;20973;-62
2023/04/27 14:19:59;;;;;;;7.57;5.00;;;;;;;;;;5072920;28;20452;-63
2023/04/27 14:22:26;;;;;;;8.17;4.90;;;;;;;;;;5072885;28;20455;-62
2023/04/27 14:24:55;;;;;;;5.00;2.57;;;;;;;;;;5072925;28;20458;-62
2023/04/27 14:27:22;;;;;;;3.53;1.53;;;;;;;;;;5072643;28;20492;-62
2023/04/27 14:29:49;;;;;;;4.50;1.40;;;;;;;;;;5073169;28;20448;-65
2023/04/27 14:32:17;;;;;;;3.43;1.40;;;;;;;;;;5072625;28;20455;-62
2023/04/27 14:34:44;;;;;;;2.90;1.40;;;;;;;;;;5072836;28;20541;-62
2023/04/27 14:37:11;;;;;;;2.33;1.90;;;;;;;;;;5072742;28;20447;-63
2023/04/27 14:39:38;;;;;;;4.50;1.43;;;;;;;;;;5071535;28;20535;-63
2023/04/27 14:42:05;;;;;;;1.40;1.30;;;;;;;;;;5072821;28;20784;-61
2023/04/27 14:44:32;;;;;;;1.83;1.10;;;;;;;;;;5072714;28;20459;-62